Ponta Pelada Airport
SBMN : now visible

Airfield :











YOU CAN JOIN US ON...

 
LOGIN :

Register | Disclaimer

   EN    FR    IT 

 









Legend :    VFR   Marginal VFR   IFR   Intensive IFR   Very Intensive IFR
Visi :
Ceiling :
>= 8 km
>= 3000ft
5 to 8 km
1000 to 3000 ft
1500m to 5 km
500 to 1000 ft
800 to 1500m
200 to 500 ft
< 800m
< 200 ft
Symbols :   Thunderstorms  Fog  Heavy snow  Heavy precipitations  Wind > 20 kt






- Airport Elevation : 267 ft
- IATA code : PLL


SBMN - Ponta Pelada

CURRENT METAR :
  • 261000Z 07004KT CAVOK 26/24 Q1010

EXPIRED METARs :
  • 260900Z 00000KT 9999 FEW020 25/25 Q1010
  • 260800Z 04002KT 9999 FEW020 26/25 Q1010

TAF TAF SBMN
Valid from the 26 at 06:00 until the 26 at 18:00 UTC


260400Z 2606/2618 07007KT 9999 FEW030 TN24/2608Z TX30/2617Z
BECMG 2616/2618 SCT020 FEW035TCU RMK PES



MET'MAP, your aeronautical weather chart ! - Copyright ORBIFLY December 2007 - Disclaimer

ORBIFLY MET'MAP TEAM :

Programming & Development : Alexandra Zaïnal
Concept & original design : Baudouin d'Aumeries
Assistance for programming : Marc-Olivier Méhu
Technical & hardware support : Manuel Goepfert

Contact : metmap@orbifly.com




SOURCES & CREDITS :

   NOAA       Earth
Advisory